Flight Track Log - Related Links

Times and Time Zones

All times are in EDT time to prevent confusion due to time zone crossing. See the DAL3982 flight status page for this flight to view local times or setup timezone preferences in your user account.


Time Position Orientation Groundspeed Altitude Reporting Facility
EDT Latitude Longitude Course Direction KTS MPH feet Rate Location/Type
Thu 09:11:23 PM 33.6500 -84.3500 North 191 220 3,200  Level Atlanta TRACON
Thu 09:12:23 PM 33.6667 -84.2667 76° East 244 281 5,600 2,500 Climbing Atlanta TRACON
Thu 09:13:00 PM 33.8328 -84.1667 North  Level FlightAware Approximate
Thu 09:13:23 PM 33.7000 -84.1833 64° Northeast 272 313 8,200  Level Atlanta TRACON
Thu 09:14:00 PM 33.9262 -84.2595 320° Northwest  Level FlightAware Approximate
Thu 09:14:23 PM 33.7833 -84.1833 360° North 307 353 10,000  Level Atlanta TRACON
Thu 09:15:00 PM 34.0452 -84.2667 North  Level FlightAware Approximate
Thu 09:16:00 PM 34.1664 -84.2667 North  Level FlightAware Approximate
Thu 09:16:49 PM 34.0111 -84.2744 342° North 377 434 13,600  Level Atlanta Center
Thu 09:17:49 PM 34.1050 -84.2822 356° North 383 441 15,400 1,700 Climbing Atlanta Center
Thu 09:18:49 PM 34.2386 -84.2825 360° North 412 474 17,000 1,400 Climbing Atlanta Center
Thu 09:19:49 PM 34.3597 -84.2653 North 422 486 18,200 1,250 Climbing Atlanta Center
Thu 09:20:49 PM 34.4808 -84.2378 11° North 432 497 19,500 1,400 Climbing Atlanta Center
Thu 09:21:49 PM 34.6019 -84.2078 12° North 438 504 21,000 1,500 Climbing Atlanta Center
Thu 09:22:49 PM 34.7231 -84.1803 11° North 438 504 22,500 1,450 Climbing Atlanta Center
Thu 09:23:49 PM 34.8481 -84.1500 11° North 448 516 23,900 1,350 Climbing Atlanta Center
Thu 09:24:49 PM 34.9714 -84.1225 10° North 448 516 25,200 1,150 Climbing Atlanta Center
Thu 09:25:49 PM 35.0964 -84.0894 12° North 448 516 26,200 1,000 Climbing Atlanta Center
Thu 09:26:49 PM 35.2258 -84.0592 11° North 453 521 27,200 1,000 Climbing Atlanta Center
Thu 09:27:49 PM 35.3531 -84.0286 11° North 458 527 28,200 1,050 Climbing Atlanta Center
Thu 09:28:49 PM 35.4867 -83.9981 11° North 465 535 29,300 1,150 Climbing Atlanta Center
Thu 09:29:49 PM 35.6161 -83.9647 12° North 470 541 30,500 1,200 Climbing Atlanta Center
Thu 09:30:49 PM 35.7453 -83.9339 11° North 470 541 31,700 1,200 Climbing Atlanta Center
Thu 09:31:49 PM 35.8706 -83.9031 11° North 470 541 32,900 1,150 Climbing Atlanta Center
Thu 09:32:49 PM 35.9872 -83.8436 22° Northeast 465 535 34,000 818 Climbing Atlanta Center
Thu 09:34:23 PM 36.1706 -83.7269 27° Northeast 460 529 35,000 385 Climbing Indianapolis Center
Thu 09:35:25 PM 36.2858 -83.6533 27° Northeast 465 535 35,000  Level Indianapolis Center
Thu 09:36:27 PM 36.4022 -83.5778 28° Northeast 472 543 35,000  Level Indianapolis Center
Thu 09:37:28 PM 36.5300 -83.4983 27° Northeast 481 554 35,000  Level Indianapolis Center
Thu 09:38:30 PM 36.6514 -83.4214 27° Northeast 485 558 35,000  Level Indianapolis Center
Thu 09:39:32 PM 36.7717 -83.3444 27° Northeast 483 556 35,000  Level Indianapolis Center
Thu 09:40:33 PM 36.8933 -83.2658 27° Northeast 487 560 35,000  Level Indianapolis Center
Thu 09:41:35 PM 37.0150 -83.1869 27° Northeast 486 559 35,000  Level Indianapolis Center
Thu 09:42:36 PM 37.1369 -83.1075 27° Northeast 485 558 35,000  Level Indianapolis Center
Thu 09:43:38 PM 37.2583 -83.0292 27° Northeast 487 560 35,000  Level Indianapolis Center
Thu 09:44:40 PM 37.3794 -82.9486 28° Northeast 488 562 35,000  Level Indianapolis Center
Thu 09:45:41 PM 37.5003 -82.8703 27° Northeast 486 559 35,000  Level Indianapolis Center
Thu 09:46:42 PM 37.6208 -82.7900 28° Northeast 488 562 35,000  Level Indianapolis Center
Thu 09:47:44 PM 37.7617 -82.6956 28° Northeast 489 563 35,000  Level Indianapolis Center
Thu 09:48:45 PM 37.8822 -82.6156 28° Northeast 487 560 35,000  Level Indianapolis Center
Thu 09:49:47 PM 38.0031 -82.5361 27° Northeast 487 560 35,000  Level Indianapolis Center
Thu 09:50:48 PM 38.1078 -82.4656 28° Northeast 488 562 35,000  Level Indianapolis Center
Thu 09:51:49 PM 38.2286 -82.3833 28° Northeast 492 566 35,000  Level Indianapolis Center
Thu 09:52:51 PM 38.3733 -82.2844 28° Northeast 489 563 35,000  Level Indianapolis Center
Thu 09:53:52 PM 38.4953 -82.2028 28° Northeast 492 566 35,000  Level Indianapolis Center
Thu 09:54:54 PM 38.6167 -82.1211 28° Northeast 490 564 35,000  Level Indianapolis Center
Thu 09:55:55 PM 38.7383 -82.0369 28° Northeast 491 565 35,000  Level Indianapolis Center
Thu 09:56:56 PM 38.8558 -81.9406 33° Northeast 494 568 35,000  Level Indianapolis Center
Thu 09:57:58 PM 38.9711 -81.8428 33° Northeast 492 566 35,000  Level Indianapolis Center
Thu 09:58:59 PM 39.0864 -81.7453 33° Northeast 491 565 35,000  Level Indianapolis Center
Thu 10:00:00 PM 39.2006 -81.6469 34° Northeast 490 564 35,000  Level Indianapolis Center
Thu 10:01:01 PM 39.3150 -81.5483 34° Northeast 492 566 35,000  Level Indianapolis Center
Thu 10:02:03 PM 39.4286 -81.4500 34° Northeast 488 562 35,000  Level Indianapolis Center
Thu 10:03:04 PM 39.5425 -81.3508 34° Northeast 493 567 35,000  Level Indianapolis Center
Thu 10:03:47 PM 39.6314 -81.2758 33° Northeast 490 564 35,000  Level Cleveland Center
Thu 10:04:47 PM 39.7444 -81.1797 33° Northeast 490 564 35,000  Level Cleveland Center
Thu 10:05:47 PM 39.8556 -81.0753 36° Northeast 490 564 35,000  Level Cleveland Center
Thu 10:06:48 PM 39.9561 -80.9622 41° Northeast 484 557 35,000  Level Cleveland Center
Thu 10:07:47 PM 40.0689 -80.8353 41° Northeast 478 550 35,000  Level Cleveland Center
Thu 10:08:47 PM 40.1714 -80.7217 40° Northeast 478 550 35,000  Level Cleveland Center
Thu 10:09:47 PM 40.2736 -80.6050 41° Northeast 483 556 35,000  Level Cleveland Center
Thu 10:10:47 PM 40.3778 -80.4878 41° Northeast 483 556 35,000  Level Cleveland Center
Thu 10:11:47 PM 40.4797 -80.3728 41° Northeast 483 556 35,000  Level Cleveland Center
Thu 10:12:47 PM 40.5669 -80.2689 42° Northeast 472 543 35,000  Level Cleveland Center
Thu 10:13:47 PM 40.6689 -80.1506 41° Northeast 472 543 35,000  Level Cleveland Center
Thu 10:14:47 PM 40.7683 -80.0347 41° Northeast 472 543 35,000  Level Cleveland Center
Thu 10:15:47 PM 40.8717 -79.8856 47° Northeast 485 558 35,000  Level Cleveland Center
Thu 10:16:47 PM 40.9356 -79.7367 60° Northeast 480 552 35,000  Level Cleveland Center
Thu 10:17:47 PM 41.0072 -79.5844 58° Northeast 480 552 35,000  Level Cleveland Center
Thu 10:18:47 PM 41.0744 -79.4344 59° Northeast 480 552 35,000  Level Cleveland Center
Thu 10:19:47 PM 41.1275 -79.3122 60° Northeast 475 547 35,000  Level Cleveland Center
Thu 10:20:47 PM 41.2133 -79.1589 53° Northeast 470 541 35,000  Level Cleveland Center
Thu 10:21:47 PM 41.3119 -79.0517 39° Northeast 462 532 35,000  Level Cleveland Center
Thu 10:22:47 PM 41.4125 -78.9414 39° Northeast 461 531 35,000  Level Cleveland Center
Thu 10:23:47 PM 41.5153 -78.8333 38° Northeast 461 531 35,000  Level Cleveland Center
Thu 10:24:47 PM 41.6178 -78.7250 38° Northeast 467 537 35,000  Level Cleveland Center
Thu 10:25:47 PM 41.7158 -78.6164 40° Northeast 467 537 35,000  Level Cleveland Center
Thu 10:26:47 PM 41.8161 -78.5047 40° Northeast 467 537 35,000  Level Cleveland Center
Thu 10:27:47 PM 41.9164 -78.3956 39° Northeast 467 537 35,000  Level Cleveland Center
Thu 10:28:47 PM 42.0164 -78.2858 39° Northeast 467 537 35,000  Level Cleveland Center
Thu 10:29:47 PM 42.1183 -78.1758 39° Northeast 467 537 35,000  Level Cleveland Center
Thu 10:30:47 PM 42.2181 -78.0653 39° Northeast 467 537 35,000  Level Cleveland Center
Thu 10:31:47 PM 42.3178 -77.9547 39° Northeast 467 537 35,000  Level Cleveland Center
Thu 10:32:47 PM 42.4194 -77.8436 39° Northeast 467 537 35,000  Level Cleveland Center
Thu 10:33:47 PM 42.5289 -77.7233 39° Northeast 467 537 35,000  Level Cleveland Center
Thu 10:34:47 PM 42.6261 -77.6089 41° Northeast 467 537 35,000  Level Cleveland Center
Thu 10:35:47 PM 42.7314 -77.4881 40° Northeast 484 557 35,000  Level Cleveland Center
Thu 10:36:47 PM 42.8264 -77.3814 39° Northeast 472 543 35,000  Level Cleveland Center
Thu 10:39:32 PM 43.0872 -77.0864 40° Northeast 466 536 35,000  Level Boston Center
Thu 10:40:32 PM 43.1858 -76.9714 40° Northeast 466 536 35,000  Level Boston Center
Thu 10:41:32 PM 43.2819 -76.8586 40° Northeast 461 531 35,000  Level Boston Center
Thu 10:42:44 PM 43.3800 -76.7458 40° Northeast 466 536 35,000  Level Boston Center
Thu 10:43:44 PM 43.5019 -76.6056 40° Northeast 473 544 35,000  Level Boston Center
Thu 10:44:44 PM 43.6039 -76.5006 37° Northeast 467 537 35,000  Level Boston Center
Thu 10:45:44 PM 43.7097 -76.3956 36° Northeast 461 531 35,000  Level Boston Center
Thu 10:46:44 PM 43.8153 -76.2933 35° Northeast 456 525 35,000  Level Boston Center
Thu 10:47:44 PM 43.9189 -76.1875 36° Northeast 456 525 35,000 -150 Level Boston Center
Thu 10:48:44 PM 44.0244 -76.0842 35° Northeast 456 525 34,700 -1,050 Descending Boston Center
Thu 10:49:44 PM 44.1319 -75.9781 35° Northeast 462 532 32,900 -1,800 Descending Boston Center
Thu 10:50:44 PM 44.2353 -75.8711 37° Northeast 467 537 31,100 -1,800 Descending Boston Center
Thu 10:51:44 PM 44.3425 -75.7642 35° Northeast 467 537 29,300 -1,884 Descending Boston Center
Thu 10:52:10 PM 44.3833 -75.7167 40° Northeast 480 552 28,400 -1,395 Descending Montreal Center
Thu 10:53:10 PM 44.4833 -75.6000 40° Northeast 460 529 27,300 -1,340 Descending Montreal Center
Thu 10:53:44 PM 44.5506 -75.5514 27° Northeast 467 537 26,300 -1,979 Descending Boston Center
Thu 10:54:44 PM 44.6556 -75.4461 35° Northeast 467 537 24,200 -2,302 Descending Boston Center
Thu 10:55:10 PM 44.7000 -75.3833 45° Northeast 460 529 23,000 -2,302 Descending Montreal Center
Thu 10:56:10 PM 44.7667 -75.2667 51° Northeast 440 506 20,900 -2,200 Descending Montreal Center
Thu 10:57:10 PM 44.8500 -75.1500 45° Northeast 420 483 18,600 -2,000 Descending Montreal Center
Thu 10:58:10 PM 44.9167 -75.0167 55° Northeast 400 460 16,900 -1,950 Descending Montreal Center
Thu 10:59:10 PM 44.9833 -74.9000 51° Northeast 380 437 14,700 -1,950 Descending Montreal Center
Thu 11:00:10 PM 45.0333 -74.7833 59° Northeast 370 426 13,000 -1,750 Descending Montreal Center
Thu 11:01:10 PM 45.0833 -74.6667 59° Northeast 340 391 11,200 -1,500 Descending Montreal Center
Thu 11:02:10 PM 45.1333 -74.5667 55° Northeast 300 345 10,000 -1,400 Descending Montreal Center
Thu 11:03:10 PM 45.1667 -74.4667 65° Northeast 280 322 8,400 -1,650 Descending Montreal Center
Thu 11:04:10 PM 45.2000 -74.3833 60° Northeast 270 311 6,700 -1,450 Descending Montreal Center
Thu 11:05:10 PM 45.2167 -74.2833 77° East 260 299 5,500 -1,200 Descending Montreal Center
Thu 11:06:10 PM 45.2500 -74.1833 65° Northeast 250 288 4,300 -1,150 Descending Montreal Center
Thu 11:07:10 PM 45.2500 -74.0833 90° East 250 288 3,200 -650 Descending Montreal Center
Thu 11:08:10 PM 45.2833 -74.0000 60° Northeast 230 265 3,000 -100 Descending Montreal Center
Thu 11:09:10 PM 45.3167 -73.9500 47° Northeast 200 230 3,000 -100 Level Montreal Center
Thu 11:10:10 PM 45.3500 -73.9000 47° Northeast 180 207 2,800 -600 Descending Montreal Center
Thu 11:11:10 PM 45.3833 -73.8500 46° Northeast 150 173 1,800 -1,000 Descending Montreal Center

Login

Don't have an account? Register now (free) for customized features, flight alerts, and more!